Bright Kalu

Scout - Remo Stars
20 Feb 2028
Sunday
Process

Personality

Adaptability (1) Ambition (20) Controversy (17) Loyalty (8) Pressure (9) Professionalism (11) Sportsmanship (19) Temperament (6)

Profile

Coaching Style Democratic
License National B
Determination 2
Man Management 6
Motivating 8
Discipline 10
Job Satisfaction
100%
Fatigue
0%
Role Scout
Wage 47.4K p/w
Contract 14.03.2030

Performance

Behaviour Good
Training Effectiveness
18%
Player Development
30%
Injury Prevention
20%
Tactical Implementation
20%

Recent Events

Attended a recruitment meeting now
Attended a recruitment meeting 7d ago
Observed a match 7d ago
Observed a match 7d ago
Attended a recruitment meeting 14d ago
Observed a match 14d ago
Observed a match 14d ago
Observed a match 21d ago

Currently Monitoring

138
Player Club Status Ability Confidence Watched Last Observed Latest Vote
Fernando Bersano Madryn Active 109 / 131 40% 3 21.01.2028 -
Gonzalo Asis Almagro Active 110 / 106 40% 3 21.01.2028 -
Radinio Balker Huddersfield Town Negotiating 133 / 115 40% 1 21.01.2028 -
Agustín Benítez Defensores Active 103 / 128 40% 2 12.01.2028 -
Anton Stach Leeds United Active 152 / 163 40% 4 12.01.2028 -
Jordan Williams Harrogate Town Active 126 / 102 40% 1 12.01.2028 -
Ilja Zhbanov Akron Negotiating 90 / 94 69% 1 01.01.2028 -
Anthony Okachi Reggiana Negotiating 94 / 94 66% 1 01.01.2028 -
Vitaly Bondarev Akron Report Ready 94 / 104 66% 1 01.01.2028 -
Ivan Belikov Fakel Report Ready 99 / 105 67% 1 01.01.2028 -
Maximiliano Meléndez Chacarita Juniors Active 123 / 116 40% 1 31.12.2027 -
Ramiro Hernandes Belgrano Active 128 / 125 40% 1 31.12.2027 -
Marquinhos Spartak Moscow Active 121 / 117 40% 1 31.12.2027 -
Dan Ballard Cardiff City Active 142 / 144 40% 2 30.12.2027 -
Leandro Lozano Boca Juniors Active 121 / 127 40% 1 30.12.2027 -
Josh Edwards Charlton Athletic Active 126 / 142 40% 1 30.12.2027 -
Williams Manyama SuperSport United Active 134 / 127 40% 6 28.12.2027 -
Andrés Álvarez Aguilas Doradas Active 103 / 118 40% 4 28.12.2027 -
Aliu Salawudeen Ikorodu City Active 96 / 104 40% 1 28.12.2027 -
Adam Randell Bristol City Active 141 / 122 40% 2 27.12.2027 -
Gonzalo Abrego Godoy Cruz Active 113 / 135 40% 4 26.12.2027 -
Gonzalo Gamarra Defensores Active 110 / 93 40% 2 26.12.2027 -
Martín Garay Tigre Active 133 / 114 40% 1 26.12.2027 -
Francisco Maidana Gimnasia y Esgrima Active 104 / 118 40% 3 25.12.2027 -
Kevin O'Toole New York City Active 122 / 110 40% 1 24.12.2027 -
Yvo Calleros Madryn Active 103 / 98 40% 3 23.12.2027 -
Julián Cosi Madryn Active 123 / 125 40% 2 23.12.2027 -
Marc Bola Watford Active 111 / 135 40% 1 22.12.2027 -
Milan van Ewijk Mansfield Town Active 143 / 142 40% 2 21.12.2027 -
Mateo Mendoza Godoy Cruz Active 124 / 135 40% 5 21.12.2027 -
Braian Aranda Agropecuario Argentino Active 124 / 121 40% 1 21.12.2027 -
Effimi Nsi Abia Warriors Active 106 / 96 40% 2 18.12.2027 -
Tosin Adarabioyo Preston Active 147 / 145 40% 2 18.12.2027 -
Erik de los Santos Racing Active 124 / 113 40% 1 18.12.2027 -
Gonzalo Mottes Chacarita Juniors Active 120 / 131 40% 6 17.12.2027 -
Nicolás Fernández Maipú Active 122 / 117 40% 4 17.12.2027 -
Walter Juárez Güemes Active 106 / 101 40% 3 15.12.2027 -
David Ayala Inter Miami CF Active 126 / 127 40% 1 15.12.2027 -
Martín García Atlanta Active 113 / 108 40% 3 13.12.2027 -
Mohammad Mukhtar Kano Pillars Active 104 / 82 40% 3 13.12.2027 -
Luis Olivera Defensores Unidos Active 112 / 123 40% 4 11.12.2027 -
Ezequiel Neira Carabobo Active 126 / 115 40% 1 11.12.2027 -
Lewis Gibson Preston Active 139 / 121 40% 1 09.12.2027 -
Godspower Akekoromowei El-Kanemi Warriors Active 86 / 89 40% 1 09.12.2027 -
Maximiliano Ribero Central Norte Active 124 / 111 40% 1 08.12.2027 -
Tristan Crama Lincoln City Active 141 / 121 40% 2 07.12.2027 -
Abdulrafiu Taiwo Rivers United Active 92 / 93 40% 3 06.12.2027 -
Nicolás Domínguez Huddersfield Town Active 152 / 133 40% 1 06.12.2027 -
Mandla Erasmus SuperSport United Active 135 / 110 40% 2 05.12.2027 -
Alpha Onyango Gor Mahia Active 85 / 115 40% 1 05.12.2027 -
Fernando Martínez Central Córdoba SdE Active 127 / 125 40% 3 03.12.2027 -
Dante Álvarez San Martín SJ Active 97 / 124 40% 2 02.12.2027 -
Manuel Ugarte Portsmouth Active 138 / 157 40% 2 02.12.2027 -
Enzo Silcan Almagro Active 109 / 122 40% 2 30.11.2027 -
Franco Camargo Gimnasia y Esgrima Active 116 / 101 40% 5 29.11.2027 -
Somiari Alalibo Abia Warriors Active 90 / 97 40% 1 29.11.2027 -
Lorenzo Monti Temperley Active 120 / 88 40% 2 27.11.2027 -
Matías Ruiz Díaz Estudiantes Active 121 / 128 40% 2 27.11.2027 -
Alejandro Molina Tristán Suárez Active 105 / 126 40% 1 26.11.2027 -
Ethan Ampadu Leeds United Active 153 / 164 40% 1 26.11.2027 -
Fernando Miranda Colegiales Active 119 / 107 40% 2 25.11.2027 -
Nicolás Paz San Martín SJ Active 127 / 134 40% 3 23.11.2027 -
Maximiliano Luayza Koot Tristán Suárez Active 104 / 111 40% 1 23.11.2027 -
Lautaro Núñez Alvarado Active 96 / 108 40% 1 18.11.2027 -
Valentín Serrano Arsenal Active 108 / 111 40% 2 16.11.2027 -
Lucas Monzón Alvarado Active 100 / 120 40% 2 16.11.2027 -
Facundo Miño Deportivo Riestra Active 135 / 141 40% 1 15.11.2027 -
Stephen Manyo Rivers United Active 103 / 85 40% 2 14.11.2027 -
Isaí Valladares Zamora Active 112 / 116 40% 1 14.11.2027 -
Juan Camilo Pérez Carabobo Active 118 / 105 40% 1 13.11.2027 -
Franco Hanashiro Colegiales Active 106 / 125 40% 1 13.11.2027 -
Maico Quiroz Güemes Active 118 / 98 40% 2 12.11.2027 -
Tomás Ferreyra Defensores Unidos Active 117 / 96 40% 1 12.11.2027 -
Facundo Ardiles Estudiantes Active 111 / 119 40% 2 11.11.2027 -
Matías Benítez San Miguel Active 103 / 107 40% 1 11.11.2027 -
Mauro Osores San Martín SJ Active 125 / 113 40% 3 09.11.2027 -
Sheyko Studer Independiente Rivadavia Active 115 / 108 40% 1 03.11.2027 -
Tomás Rojas Atlanta Active 109 / 113 40% 1 03.11.2027 -
Innocent Arigu Katsina United Active 95 / 79 40% 1 03.11.2027 -
Nazareno Fernández Colombo Los Andes Active 95 / 87 40% 1 01.11.2027 -
José Mercado Union Magdalena Active 120 / 117 40% 3 17.10.2027 -
Gino Barbieri Almagro Active 121 / 97 40% 2 12.10.2027 -
Abel Bustos Racing Active 114 / 123 40% 1 11.10.2027 -
Duke Osimaga Rivers United Active 85 / 81 40% 1 08.10.2027 -
Gabriel Altamirano Almirante Brown Active 123 / 90 40% 1 08.10.2027 -
Emanuel Iñíguez Morón Active 114 / 116 40% 2 05.10.2027 -
Ian Pérez Defensores Active 94 / 85 40% 1 05.10.2027 -
Matías Sánchez Racing Active 120 / 101 40% 2 01.10.2027 -
Lautaro Lusnig Deportivo Tachira Active 107 / 93 40% 1 30.09.2027 -
Matías Machado Racing Active 124 / 129 40% 1 29.09.2027 -
Facundo Castet Colón Active 120 / 110 40% 1 26.09.2027 -
Kabiru Tijjani Shooting Stars Active 100 / 78 40% 1 21.09.2027 -
Steven Pabón Trujillanos Active 113 / 111 40% 1 18.09.2027 -
Gabriel Otero Llaneros Active 95 / 104 40% 1 11.09.2027 -
Cristhián Rivas Estudiantes de Merida Active 118 / 113 40% 1 09.09.2027 -
Paulo Vitor Dinamo Batumi Active 121 / 119 40% 1 09.09.2027 -
Brian Calderara Chacarita Juniors Active 115 / 117 40% 1 07.09.2027 -
Deruo Wisdom Etoiles du Mande Active 101 / 100 40% 1 02.09.2027 -
Giorgi Arabidze Torpedo Kutaisi Active 112 / 114 40% 1 02.09.2027 -
Samuel Mathias Barau Active 85 / 85 62% 1 16.08.2027 -
Hamza Choudhury Leicester City Active 128 / 148 40% 1 09.08.2027 -
Kelechi Ogbodo Rangers International Active 89 / 97 62% 1 05.07.2027 -
Lorent Tolaj Plymouth Argyle Active 128 / 132 40% 1 07.06.2027 -
Josh Benson Rotherham United Active 115 / 98 40% 1 02.06.2027 -
Idris El Mizouni Leyton Orient Active 126 / 133 40% 1 02.06.2027 -
Simon Ramabu Polokwane City Active 121 / 118 40% 3 31.05.2027 -
Giacomo Zecca Torres Active 101 / 96 40% 1 31.05.2027 -
Thomas Waddingham Portsmouth Active 108 / 120 40% 1 28.05.2027 -
Araphat Mohammed Berekum Chelsea Active 102 / 118 40% 2 27.05.2027 -
Harvey White Stevenage Active 110 / 132 40% 3 27.05.2027 -
Jovon Makama Norwich City Active 124 / 141 40% 1 26.05.2027 -
Oswin Appollis Orlando Pirates Active 110 / 114 40% 3 24.05.2027 -
Joe Snowdon Swindon Town Active 99 / 106 40% 1 24.05.2027 -
John Yeboah Venezia Active 115 / 139 40% 2 23.05.2027 -
Mattia Zennaro Union Brescia Active 114 / 127 40% 1 19.05.2027 -
Michele Ambrosini AlbinoLeffe Active 108 / 95 40% 1 16.05.2027 -
Derrick Fordjour Medeama Active 101 / 99 40% 3 14.05.2027 -
Ronaldo Maarman University of Pretoria Active 98 / 124 40% 1 14.05.2027 -
Siyanda Msani University of Pretoria Active 92 / 102 40% 1 12.05.2027 -
Ben Lhassine Koné Frosinone Active 110 / 106 40% 1 10.05.2027 -
Kwadwo Obeng Junior Heart of Lions Active 95 / 72 40% 1 09.05.2027 -
Francis Sulemana Wa All Stars Active 84 / 92 40% 1 08.05.2027 -
Junior Quitirna Wycombe Wanderers Active 97 / 116 40% 2 06.05.2027 -
Sifiso Mokoena Black Aces Active 86 / 83 40% 2 02.05.2027 -
Ewan Henderson Wycombe Wanderers Active 110 / 132 40% 1 29.04.2027 -
Mohammed Djiku Wa All Stars Active 95 / 90 40% 2 27.04.2027 -
Thalente Mbatha Orlando Pirates Active 104 / 130 40% 1 27.04.2027 -
Trai Hume Sunderland Active 139 / 121 40% 1 24.04.2027 -
Siyanda Ndlovu Bloemfontein Celtic Active 130 / 121 40% 2 19.04.2027 -
Nicholas Ablido Great Olympics Active 98 / 102 40% 1 14.04.2027 -
Bernat Guiu Virtus Entella Active 131 / 136 40% 1 11.04.2027 -
Andrea Colpani Monza Active 125 / 143 40% 1 10.04.2027 -
Eric Oteng Ashanti Gold Active 85 / 84 40% 2 09.04.2027 -
Marcelo Allende Mamelodi Sundowns Active 149 / 145 40% 1 28.03.2027 -
Thulani Dala Platinum Stars Active 89 / 84 40% 1 27.03.2027 -
Idris Ajiya Nasarawa United Active 71 / 75 58% 1 18.01.2027 -
Bassey Bassey Warri Wolves Active 90 / 93 42% 1 / 1m 19.08.2026 -
Joel Odoh Rangers International Active 89 / 96 58% 1 03.08.2026 -